Time;durP1;ratioP1;P1;durP2;ratioP2;P2;SDS_P1;SDS_P2;PMS_P1;PMS_P2;Temp;Humidity;BMP_temperature;BMP_pressure;BME280_temperature;BME280_humidity;BME280_pressure;Samples;Min_cycle;Max_cycle;Signal;HPM_P1;HPM_P2
2024/02/17 00:01:11;;;;;;;64.47;34.78;;;3.20;99.90;;;;;;5080533;28;20021;-78
2024/02/17 00:03:37;;;;;;;65.20;36.22;;;3.20;99.90;;;;;;5012480;28;20506;-78
2024/02/17 00:06:03;;;;;;;68.57;37.17;;;3.20;99.90;;;;;;5080694;28;20022;-78
2024/02/17 00:08:28;;;;;;;54.00;29.20;;;3.30;99.90;;;;;;5080734;28;20440;-78
2024/02/17 00:10:54;;;;;;;63.83;33.85;;;3.30;99.90;;;;;;5096079;28;20504;-79
2024/02/17 00:13:20;;;;;;;63.10;33.97;;;3.30;99.90;;;;;;5012446;28;20026;-78
2024/02/17 00:15:46;;;;;;;63.45;33.58;;;3.30;99.90;;;;;;5081178;28;20094;-78
2024/02/17 00:18:12;;;;;;;59.13;32.88;;;3.30;99.90;;;;;;5012307;28;20059;-78
2024/02/17 00:20:38;;;;;;;61.10;32.75;;;3.30;99.90;;;;;;5080860;28;20551;-78
2024/02/17 00:23:04;;;;;;;61.22;32.83;;;3.20;99.90;;;;;;5010634;28;20463;-78
2024/02/17 00:25:29;;;;;;;58.05;31.00;;;3.20;99.90;;;;;;5067410;28;20062;-79
2024/02/17 00:27:55;;;;;;;58.55;32.10;;;3.20;99.90;;;;;;5079939;28;20022;-77
2024/02/17 00:30:21;;;;;;;55.53;31.40;;;3.10;99.90;;;;;;5080313;28;20026;-77
2024/02/17 00:32:47;;;;;;;63.08;32.90;;;3.10;99.90;;;;;;5080357;28;20025;-80
2024/02/17 00:35:12;;;;;;;61.83;31.98;;;3.10;99.90;;;;;;5012324;28;20065;-80
2024/02/17 00:37:38;;;;;;;52.95;30.02;;;3.10;99.90;;;;;;5079886;28;20109;-77
2024/02/17 00:40:06;;;;;;;49.65;29.27;;;3.10;99.90;;;;;;5079742;28;20050;-79
2024/02/17 00:42:32;;;;;;;48.40;25.67;;;3.20;99.90;;;;;;5012007;28;20018;-77
2024/02/17 00:44:58;;;;;;;48.83;27.10;;;3.20;99.90;;;;;;5080139;28;20050;-78
2024/02/17 00:47:24;;;;;;;43.75;26.30;;;3.30;99.90;;;;;;5080738;28;20034;-78
2024/02/17 00:49:50;;;;;;;47.90;26.02;;;3.40;99.90;;;;;;5075074;28;20087;-79
2024/02/17 00:52:15;;;;;;;48.30;26.98;;;3.40;99.90;;;;;;5080681;28;20033;-80
2024/02/17 00:54:41;;;;;;;47.15;27.75;;;3.50;99.90;;;;;;5079817;28;20061;-77
2024/02/17 00:57:07;;;;;;;50.70;28.30;;;3.50;99.90;;;;;;5010799;28;20014;-77
2024/02/17 00:59:33;;;;;;;54.70;27.63;;;3.50;99.90;;;;;;5080145;28;20021;-79
2024/02/17 01:02:01;;;;;;;58.13;29.20;;;3.60;99.90;;;;;;5096010;28;20463;-77
2024/02/17 01:04:26;;;;;;;46.85;26.88;;;3.50;99.90;;;;;;5011469;28;20022;-79
2024/02/17 01:06:52;;;;;;;55.80;28.10;;;3.40;99.90;;;;;;5079464;28;20494;-77
2024/02/17 01:09:18;;;;;;;46.78;27.30;;;3.40;99.90;;;;;;5011748;28;20082;-77
2024/02/17 01:11:43;;;;;;;50.72;26.98;;;3.40;99.90;;;;;;5079078;28;20026;-77
2024/02/17 01:14:09;;;;;;;48.55;27.95;;;3.40;99.90;;;;;;5079936;28;20647;-81
2024/02/17 01:16:35;;;;;;;49.35;29.10;;;3.40;99.90;;;;;;5011383;28;20033;-79
2024/02/17 01:19:00;;;;;;;51.42;29.33;;;3.40;99.90;;;;;;5079628;28;20037;-80
2024/02/17 01:21:26;;;;;;;56.35;28.35;;;3.40;99.90;;;;;;5067659;28;20022;-80
2024/02/17 01:23:53;;;;;;;48.50;26.33;;;3.40;99.90;;;;;;5096287;28;20033;-80
2024/02/17 01:26:18;;;;;;;48.55;27.45;;;3.40;99.90;;;;;;5079155;28;20517;-78
2024/02/17 01:28:44;;;;;;;49.33;27.55;;;3.40;99.90;;;;;;5008893;28;20026;-78
2024/02/17 01:31:10;;;;;;;52.45;27.55;;;3.40;99.90;;;;;;5011069;28;20041;-78
2024/02/17 01:33:35;;;;;;;48.15;25.52;;;3.40;99.90;;;;;;5079269;28;20426;-77
2024/02/17 01:36:02;;;;;;;43.25;25.63;;;3.40;99.90;;;;;;4999047;28;20031;-80
2024/02/17 01:38:27;;;;;;;44.40;24.77;;;3.40;99.90;;;;;;5078878;28;20026;-78
2024/02/17 01:40:53;;;;;;;48.08;26.58;;;3.30;99.90;;;;;;5078551;28;20427;-80
2024/02/17 01:43:20;;;;;;;43.25;25.38;;;3.40;99.90;;;;;;5078952;28;20083;-77
2024/02/17 01:45:46;;;;;;;44.08;26.00;;;3.30;99.90;;;;;;5011025;28;20105;-78
2024/02/17 01:48:13;;;;;;;51.45;25.15;;;3.30;99.90;;;;;;5011054;28;20044;-77
2024/02/17 01:50:39;;;;;;;46.47;25.35;;;3.30;99.90;;;;;;5072455;28;20053;-78
2024/02/17 01:53:06;;;;;;;49.00;26.02;;;3.30;99.90;;;;;;5010988;28;20022;-78
2024/02/17 01:55:32;;;;;;;46.83;25.42;;;3.30;99.90;;;;;;5078274;28;20034;-79
2024/02/17 01:57:58;;;;;;;43.15;24.88;;;3.30;99.90;;;;;;5077465;28;20026;-79
2024/02/17 02:00:24;;;;;;;41.35;24.08;;;3.30;99.90;;;;;;5010525;28;20018;-78
2024/02/17 02:02:50;;;;;;;46.05;24.40;;;3.40;99.90;;;;;;5077953;28;20372;-78
2024/02/17 02:05:16;;;;;;;43.47;23.23;;;3.30;99.90;;;;;;5078829;28;20097;-78
2024/02/17 02:07:42;;;;;;;41.90;24.80;;;3.30;99.90;;;;;;5078596;28;20420;-78
2024/02/17 02:10:08;;;;;;;44.22;25.02;;;3.30;99.90;;;;;;5078430;28;20395;-80
2024/02/17 02:12:34;;;;;;;44.05;25.65;;;3.30;99.90;;;;;;5010679;28;20026;-77
2024/02/17 02:15:06;;;;;;;42.83;22.77;;;3.30;99.90;;;;;;5077245;28;20045;-77
2024/02/17 02:17:36;;;;;;;42.78;22.10;;;3.30;99.90;;;;;;5074169;28;20387;-77
2024/02/17 02:20:02;;;;;;;38.75;20.40;;;3.40;99.90;;;;;;5077122;28;20383;-77
2024/02/17 02:22:28;;;;;;;45.15;24.70;;;3.40;99.90;;;;;;5002007;28;20026;-77
2024/02/17 02:24:59;;;;;;;42.60;25.63;;;3.50;99.90;;;;;;5077273;28;20117;-80
2024/02/17 02:27:28;;;;;;;37.45;22.50;;;3.40;99.90;;;;;;5078001;28;20083;-80
2024/02/17 02:29:56;;;;;;;42.10;24.58;;;3.40;99.90;;;;;;5077848;28;20026;-78
2024/02/17 02:32:25;;;;;;;44.05;22.95;;;3.40;99.90;;;;;;5078154;28;20437;-79
2024/02/17 02:34:52;;;;;;;44.65;23.77;;;3.30;99.90;;;;;;5010511;28;20121;-80
2024/02/17 02:37:17;;;;;;;42.72;24.15;;;3.30;99.90;;;;;;4997695;28;20022;-79
2024/02/17 02:39:43;;;;;;;38.85;23.77;;;3.20;99.90;;;;;;5077876;28;20569;-80
2024/02/17 02:42:09;;;;;;;46.78;25.10;;;3.20;99.90;;;;;;5077693;28;20060;-81
2024/02/17 02:44:35;;;;;;;45.25;23.40;;;3.20;99.90;;;;;;5078359;28;20018;-79
2024/02/17 02:47:00;;;;;;;43.38;24.75;;;3.20;99.90;;;;;;5010098;28;20033;-79
2024/02/17 02:49:26;;;;;;;43.40;23.20;;;3.20;99.90;;;;;;5073557;28;20031;-81
2024/02/17 02:51:52;;;;;;;42.08;23.42;;;3.20;99.90;;;;;;5008396;28;20026;-79
2024/02/17 02:54:19;;;;;;;49.72;24.92;;;3.30;99.90;;;;;;5010297;28;20481;-81
2024/02/17 02:56:44;;;;;;;42.00;23.58;;;3.30;99.90;;;;;;5077616;28;20024;-79
2024/02/17 02:59:10;;;;;;;42.55;24.70;;;3.40;99.90;;;;;;5009645;28;20391;-81
2024/02/17 03:01:36;;;;;;;48.05;25.30;;;3.50;99.90;;;;;;5077664;28;20018;-79
2024/02/17 03:04:01;;;;;;;41.13;23.95;;;3.50;99.90;;;;;;5009869;28;20097;-82
2024/02/17 03:06:29;;;;;;;43.33;25.58;;;3.60;99.90;;;;;;5077800;28;20033;-79
2024/02/17 03:08:55;;;;;;;41.13;23.98;;;3.70;99.90;;;;;;5077318;28;20105;-82
2024/02/17 03:11:20;;;;;;;45.95;24.88;;;3.70;99.90;;;;;;5077303;28;20113;-82
2024/02/17 03:13:46;;;;;;;41.20;24.52;;;3.80;99.90;;;;;;5010219;28;20022;-84
2024/02/17 03:16:25;;;;;;;43.30;24.98;;;3.80;99.90;;;;;;5079011;28;20079;-79
2024/02/17 03:18:52;;;;;;;43.67;25.67;;;3.80;99.90;;;;;;5076523;28;20571;-82
2024/02/17 03:21:18;;;;;;;41.30;25.35;;;3.80;99.90;;;;;;5070670;28;20052;-79
2024/02/17 03:23:43;;;;;;;47.95;24.50;;;3.80;99.90;;;;;;5076565;28;20018;-80
2024/02/17 03:26:09;;;;;;;48.53;25.02;;;3.80;99.90;;;;;;5077484;28;20068;-80
2024/02/17 03:28:34;;;;;;;46.45;24.02;;;3.80;99.90;;;;;;5009556;28;20075;-79
2024/02/17 03:31:00;;;;;;;45.50;22.38;;;3.80;99.90;;;;;;5077262;28;20019;-79
2024/02/17 03:33:27;;;;;;;38.00;22.33;;;3.70;99.90;;;;;;5010053;28;20029;-80
2024/02/17 03:35:52;;;;;;;43.10;23.95;;;3.70;99.90;;;;;;5077030;28;20499;-80
2024/02/17 03:38:18;;;;;;;42.08;23.55;;;3.70;99.90;;;;;;5077202;28;20033;-81
2024/02/17 03:40:44;;;;;;;41.28;23.73;;;3.70;99.90;;;;;;5009635;28;20092;-80
2024/02/17 03:43:09;;;;;;;36.15;22.20;;;3.70;99.90;;;;;;5077085;28;20030;-80
2024/02/17 03:45:35;;;;;;;42.83;22.15;;;3.60;99.90;;;;;;5094297;28;20483;-79
2024/02/17 03:48:01;;;;;;;40.30;21.75;;;3.70;99.90;;;;;;5009161;28;20059;-82
2024/02/17 03:50:27;;;;;;;41.67;22.77;;;3.60;99.90;;;;;;5004047;28;20030;-81
2024/02/17 03:52:53;;;;;;;35.05;22.33;;;3.60;99.90;;;;;;5076919;28;20021;-81
2024/02/17 03:55:18;;;;;;;34.10;22.15;;;3.70;99.90;;;;;;5077194;28;20038;-79
2024/02/17 03:57:44;;;;;;;32.30;20.35;;;3.70;99.90;;;;;;5077096;28;20014;-82
2024/02/17 04:00:13;;;;;;;37.50;21.02;;;3.70;99.90;;;;;;5093512;28;20041;-78
2024/02/17 04:02:40;;;;;;;40.30;20.98;;;3.80;99.90;;;;;;5010420;28;20010;-81
2024/02/17 04:05:08;;;;;;;35.13;19.90;;;3.80;99.90;;;;;;5012928;28;20430;-79
2024/02/17 04:07:34;;;;;;;39.60;19.70;;;3.80;99.90;;;;;;5012375;28;20022;-79
2024/02/17 04:09:59;;;;;;;36.55;20.00;;;3.80;99.90;;;;;;5080822;28;20407;-81
2024/02/17 04:12:25;;;;;;;35.85;21.00;;;3.90;99.90;;;;;;5094156;28;20026;-79
2024/02/17 04:14:51;;;;;;;35.45;19.85;;;3.90;99.90;;;;;;5012411;28;20399;-82
2024/02/17 04:17:17;;;;;;;34.08;19.75;;;3.90;99.90;;;;;;5083232;28;20014;-82
2024/02/17 04:19:42;;;;;;;34.17;19.52;;;3.90;99.90;;;;;;5010895;28;20034;-82
2024/02/17 04:22:08;;;;;;;38.00;20.98;;;4.00;99.90;;;;;;5012203;28;20028;-82
2024/02/17 04:24:34;;;;;;;38.60;21.77;;;4.00;99.90;;;;;;5079708;28;20475;-78
2024/02/17 04:26:59;;;;;;;43.30;23.67;;;4.00;99.90;;;;;;5011596;28;20022;-79
2024/02/17 04:29:25;;;;;;;39.70;22.90;;;4.00;99.90;;;;;;5011877;28;20423;-78
2024/02/17 04:31:51;;;;;;;43.22;24.02;;;4.00;99.90;;;;;;5012014;28;20026;-78
2024/02/17 04:34:16;;;;;;;43.05;24.55;;;4.10;99.90;;;;;;5012199;28;20018;-81
2024/02/17 04:36:42;;;;;;;43.53;23.48;;;4.10;99.90;;;;;;5080309;28;20018;-82
2024/02/17 04:39:10;;;;;;;53.25;27.58;;;4.10;99.90;;;;;;5080207;28;20050;-78
2024/02/17 04:41:36;;;;;;;51.40;27.95;;;4.20;99.90;;;;;;5079807;28;20026;-79
2024/02/17 04:44:01;;;;;;;48.08;28.00;;;4.20;99.90;;;;;;5068417;28;20022;-78
2024/02/17 04:46:27;;;;;;;41.25;25.83;;;4.30;99.90;;;;;;5010258;28;20106;-81
2024/02/17 04:48:53;;;;;;;41.08;23.08;;;4.30;99.90;;;;;;5079910;28;20018;-78
2024/02/17 04:51:18;;;;;;;44.88;24.98;;;4.30;99.90;;;;;;5011634;28;20108;-78
2024/02/17 04:53:44;;;;;;;49.22;25.88;;;4.40;99.90;;;;;;5012081;28;20022;-78
2024/02/17 04:56:10;;;;;;;41.45;23.00;;;4.40;99.90;;;;;;5079403;28;20033;-78
2024/02/17 04:58:35;;;;;;;42.78;24.50;;;4.40;99.90;;;;;;5088251;28;20019;-78
2024/02/17 05:01:01;;;;;;;39.42;22.70;;;4.40;99.90;;;;;;5011615;28;20471;-83
2024/02/17 05:03:26;;;;;;;37.95;22.63;;;4.40;99.90;;;;;;5079613;28;20037;-79
2024/02/17 05:05:52;;;;;;;39.58;23.75;;;4.50;99.90;;;;;;5079607;28;20029;-80
2024/02/17 05:08:18;;;;;;;37.85;22.95;;;4.50;99.90;;;;;;5079440;28;20022;-82
2024/02/17 05:10:43;;;;;;;34.72;21.30;;;4.50;99.90;;;;;;5079454;28;20053;-80
2024/02/17 05:13:09;;;;;;;37.55;20.92;;;4.60;99.90;;;;;;5079859;28;20109;-79
2024/02/17 05:15:35;;;;;;;34.45;20.90;;;4.60;99.90;;;;;;5078364;28;20436;-83
2024/02/17 05:18:00;;;;;;;31.98;20.27;;;4.60;99.90;;;;;;5078400;28;20026;-80
2024/02/17 05:20:26;;;;;;;37.58;20.60;;;4.60;99.90;;;;;;5011248;28;20030;-83
2024/02/17 05:22:52;;;;;;;34.25;20.55;;;4.60;99.90;;;;;;5079372;28;20022;-80
2024/02/17 05:25:18;;;;;;;32.50;19.10;;;4.70;99.90;;;;;;5079147;28;20033;-83
2024/02/17 05:27:44;;;;;;;30.63;19.92;;;4.70;99.90;;;;;;5079295;28;20014;-82
2024/02/17 05:30:10;;;;;;;34.38;19.35;;;4.70;99.90;;;;;;5094992;28;20511;-83
2024/02/17 05:32:36;;;;;;;33.65;19.63;;;4.70;99.90;;;;;;5079352;28;20049;-83
2024/02/17 05:35:02;;;;;;;29.92;19.17;;;4.70;99.90;;;;;;5078834;28;20091;-79
2024/02/17 05:37:27;;;;;;;35.38;19.33;;;4.80;99.90;;;;;;5079153;28;20392;-79
2024/02/17 05:39:54;;;;;;;32.60;18.85;;;4.80;99.90;;;;;;5010996;28;20038;-79
2024/02/17 05:42:20;;;;;;;36.53;19.55;;;4.80;99.90;;;;;;5079008;28;20033;-80
2024/02/17 05:44:45;;;;;;;33.00;19.77;;;4.80;99.90;;;;;;5005952;28;20022;-83
2024/02/17 05:47:11;;;;;;;33.33;18.38;;;4.80;99.90;;;;;;5032502;28;20031;-82
2024/02/17 05:49:37;;;;;;;35.75;19.80;;;4.90;99.90;;;;;;5077291;28;20497;-82
2024/02/17 05:52:03;;;;;;;33.40;19.98;;;4.90;99.90;;;;;;5078983;28;20025;-79
2024/02/17 05:54:29;;;;;;;34.85;20.48;;;4.90;99.90;;;;;;5078701;28;20026;-82
2024/02/17 05:56:54;;;;;;;38.20;22.90;;;4.90;99.90;;;;;;5010885;28;20071;-83
2024/02/17 05:59:20;;;;;;;35.70;21.15;;;5.00;99.90;;;;;;5078608;28;20041;-81
2024/02/17 06:01:46;;;;;;;35.47;19.95;;;5.00;99.90;;;;;;5078699;28;20022;-79
2024/02/17 06:04:12;;;;;;;34.00;20.85;;;5.00;99.90;;;;;;5010728;28;20063;-79
2024/02/17 06:06:37;;;;;;;28.25;18.92;;;5.00;99.90;;;;;;5010997;28;20037;-79
2024/02/17 06:09:03;;;;;;;30.90;19.98;;;5.10;99.90;;;;;;5000869;28;20026;-83
2024/02/17 06:11:29;;;;;;;31.20;19.60;;;5.10;99.90;;;;;;5078626;28;20026;-81
2024/02/17 06:13:54;;;;;;;36.92;24.45;;;5.10;99.90;;;;;;5010876;28;20022;-83
2024/02/17 06:16:20;;;;;;;38.65;24.38;;;5.10;99.90;;;;;;5010632;28;20041;-79
2024/02/17 06:21:31;;;;;;;36.17;21.23;;;5.20;99.90;;;;;;5003682;28;20151;-83
2024/02/17 06:23:57;;;;;;;37.10;22.35;;;5.30;99.90;;;;;;5077358;28;20487;-80
2024/02/17 06:26:27;;;;;;;34.92;21.45;;;5.30;99.90;;;;;;5083762;28;20030;-83
2024/02/17 06:28:54;;;;;;;34.53;19.80;;;5.30;99.90;;;;;;5009622;28;20026;-83
2024/02/17 06:31:20;;;;;;;32.42;19.90;;;5.30;99.90;;;;;;5077767;28;20079;-83
2024/02/17 06:33:46;;;;;;;34.75;19.67;;;5.30;99.90;;;;;;5001440;28;20034;-83
2024/02/17 06:36:12;;;;;;;33.90;18.95;;;5.40;99.90;;;;;;5077471;28;20401;-79
2024/02/17 06:38:38;;;;;;;34.17;18.33;;;5.40;99.90;;;;;;5010279;28;20029;-82
2024/02/17 06:41:04;;;;;;;31.83;18.50;;;5.40;99.90;;;;;;5077743;28;20053;-83
2024/02/17 06:43:30;;;;;;;33.38;18.95;;;5.50;99.90;;;;;;5004576;28;20261;-83
2024/02/17 06:45:58;;;;;;;31.67;20.00;;;5.50;99.90;;;;;;4996314;28;20062;-82
2024/02/17 06:48:25;;;;;;;34.45;20.05;;;5.50;99.90;;;;;;5073522;28;20018;-79
2024/02/17 06:50:50;;;;;;;31.00;19.77;;;5.60;99.90;;;;;;5004479;28;20029;-79
2024/02/17 06:53:16;;;;;;;34.97;21.92;;;5.60;99.90;;;;;;5081528;28;20024;-83
2024/02/17 06:55:42;;;;;;;42.03;22.02;;;5.60;99.90;;;;;;5077998;28;20120;-79
2024/02/17 06:58:08;;;;;;;42.80;23.23;;;5.60;99.90;;;;;;5086874;28;20010;-79
2024/02/17 07:00:33;;;;;;;36.30;21.90;;;5.70;99.90;;;;;;5077910;28;20025;-79
2024/02/17 07:02:59;;;;;;;35.38;21.35;;;5.70;99.90;;;;;;5068330;28;20827;-82
2024/02/17 07:05:25;;;;;;;30.25;18.27;;;5.80;99.90;;;;;;5075308;28;20113;-83
2024/02/17 07:07:51;;;;;;;27.83;18.05;;;5.80;99.90;;;;;;5079251;28;20118;-86
2024/02/17 07:10:16;;;;;;;31.02;18.77;;;5.80;99.90;;;;;;5076799;28;20460;-80
2024/02/17 07:12:42;;;;;;;30.73;18.35;;;5.80;99.90;;;;;;5077483;28;20018;-78
2024/02/17 07:15:08;;;;;;;26.65;18.23;;;5.90;99.90;;;;;;5009356;28;20038;-79
2024/02/17 07:17:33;;;;;;;31.58;19.05;;;5.90;99.90;;;;;;5001337;28;20027;-81
2024/02/17 07:19:59;;;;;;;31.10;17.50;;;5.90;99.90;;;;;;5058818;28;20026;-81
2024/02/17 07:22:25;;;;;;;26.20;18.10;;;6.00;99.90;;;;;;5067201;28;20384;-82
2024/02/17 07:24:51;;;;;;;30.10;17.35;;;6.00;99.90;;;;;;5083110;28;20026;-81
2024/02/17 07:27:17;;;;;;;30.00;17.67;;;6.00;99.90;;;;;;5077356;28;20479;-82
2024/02/17 07:29:42;;;;;;;27.02;17.38;;;6.00;99.90;;;;;;5008702;28;20050;-81
2024/02/17 07:32:08;;;;;;;27.88;17.70;;;6.00;99.90;;;;;;5008927;28;20049;-82
2024/02/17 07:34:36;;;;;;;29.08;17.58;;;6.00;99.90;;;;;;5075924;28;20030;-82
2024/02/17 07:37:02;;;;;;;33.65;19.40;;;6.00;99.90;;;;;;5062760;28;20496;-81
2024/02/17 07:39:29;;;;;;;30.10;18.30;;;6.10;99.90;;;;;;5088054;28;20082;-82
2024/02/17 07:41:55;;;;;;;30.80;17.77;;;6.10;99.90;;;;;;5082853;28;20012;-81
2024/02/17 07:44:23;;;;;;;27.00;18.42;;;6.10;99.90;;;;;;5100106;28;20112;-81
2024/02/17 07:46:49;;;;;;;34.40;19.73;;;6.10;99.90;;;;;;5093436;28;20012;-81
2024/02/17 07:49:17;;;;;;;32.92;20.55;;;6.10;99.90;;;;;;5093222;28;20046;-81
2024/02/17 07:51:43;;;;;;;33.85;19.50;;;6.10;99.90;;;;;;5095175;28;20359;-81
2024/02/17 07:54:09;;;;;;;34.67;18.35;;;6.10;99.90;;;;;;5088842;28;20017;-80
2024/02/17 07:56:34;;;;;;;31.27;18.88;;;6.10;99.90;;;;;;5086558;28;20101;-81
2024/02/17 07:59:00;;;;;;;33.90;18.08;;;6.10;99.90;;;;;;5086671;28;20486;-81
2024/02/17 08:01:25;;;;;;;35.97;19.60;;;6.10;99.90;;;;;;5092869;28;20051;-81
2024/02/17 08:03:51;;;;;;;39.08;21.27;;;6.10;99.90;;;;;;5081802;28;20021;-81
2024/02/17 08:06:20;;;;;;;39.03;21.17;;;6.10;99.90;;;;;;5076456;28;20028;-80
2024/02/17 08:08:46;;;;;;;37.45;20.85;;;6.10;99.90;;;;;;5089398;28;20386;-80
2024/02/17 08:11:13;;;;;;;31.00;19.25;;;6.10;99.90;;;;;;5082310;28;20013;-81
2024/02/17 08:13:39;;;;;;;33.47;19.25;;;6.10;99.90;;;;;;5084318;28;20117;-80
2024/02/17 08:16:05;;;;;;;30.65;18.92;;;6.10;99.90;;;;;;5091465;28;20032;-81
2024/02/17 08:18:31;;;;;;;35.20;21.40;;;6.10;99.90;;;;;;5084399;28;20031;-81
2024/02/17 08:20:58;;;;;;;32.17;20.20;;;6.00;99.90;;;;;;5095549;28;20016;-81
2024/02/17 08:23:28;;;;;;;43.08;25.63;;;6.00;99.90;;;;;;5092510;28;20020;-82
2024/02/17 08:25:54;;;;;;;48.80;27.35;;;6.10;99.90;;;;;;5093889;28;20132;-81
2024/02/17 08:28:20;;;;;;;54.65;29.60;;;6.10;99.90;;;;;;5086398;28;20032;-82
2024/02/17 08:30:45;;;;;;;53.70;30.08;;;6.10;99.90;;;;;;5093805;28;20054;-81
2024/02/17 08:33:11;;;;;;;62.08;33.17;;;6.10;99.90;;;;;;5092738;28;20036;-82
2024/02/17 08:35:37;;;;;;;58.53;34.00;;;6.10;99.90;;;;;;5110135;28;20475;-81
2024/02/17 08:38:03;;;;;;;59.78;31.08;;;6.10;99.90;;;;;;5094085;28;20027;-81
2024/02/17 08:40:29;;;;;;;63.20;33.25;;;6.20;99.90;;;;;;5093661;28;20051;-81
2024/02/17 08:42:55;;;;;;;55.03;31.63;;;6.20;99.90;;;;;;5094468;28;20028;-82
2024/02/17 08:45:21;;;;;;;69.88;37.08;;;6.30;99.90;;;;;;5092753;28;20560;-82
2024/02/17 08:47:46;;;;;;;213.32;92.95;;;6.20;99.90;;;;;;5091570;28;20071;-80
2024/02/17 08:50:12;;;;;;;169.10;79.18;;;6.20;99.90;;;;;;5078301;28;20046;-80
2024/02/17 08:52:38;;;;;;;200.25;92.18;;;6.20;99.90;;;;;;5093206;28;20384;-81
2024/02/17 08:55:04;;;;;;;375.58;163.60;;;6.30;99.90;;;;;;5093466;28;20036;-86
2024/02/17 08:57:29;;;;;;;79.00;41.05;;;6.20;99.90;;;;;;5092467;28;20028;-80
2024/02/17 08:59:55;;;;;;;113.60;55.20;;;6.20;99.90;;;;;;5087683;28;20012;-82
2024/02/17 09:02:20;;;;;;;109.43;52.30;;;6.20;99.90;;;;;;5083657;28;20043;-82
2024/02/17 09:04:46;;;;;;;267.27;119.57;;;6.20;99.90;;;;;;5093195;28;20028;-83
2024/02/17 09:07:12;;;;;;;349.15;154.70;;;6.20;99.90;;;;;;5090650;28;20020;-81
2024/02/17 09:09:37;;;;;;;401.52;181.57;;;6.20;99.90;;;;;;5092364;28;20028;-81
2024/02/17 09:12:03;;;;;;;286.42;132.43;;;6.30;99.90;;;;;;5087044;28;20017;-83
2024/02/17 09:14:34;;;;;;;179.52;85.95;;;6.30;99.90;;;;;;5092971;28;20082;-82
2024/02/17 09:17:00;;;;;;;107.55;58.53;;;6.30;99.90;;;;;;5091781;28;20480;-82
2024/02/17 09:19:26;;;;;;;76.93;41.03;;;6.30;99.90;;;;;;5080244;28;20168;-82
2024/02/17 09:21:52;;;;;;;224.38;105.72;;;6.30;99.90;;;;;;5082464;28;20020;-83
2024/02/17 09:24:25;;;;;;;131.27;61.78;;;6.30;99.90;;;;;;5090415;28;20024;-83
2024/02/17 09:26:50;;;;;;;89.03;42.47;;;6.30;99.90;;;;;;5087764;28;20016;-81
2024/02/17 09:29:16;;;;;;;83.57;37.20;;;6.30;99.90;;;;;;5088892;28;20110;-86
2024/02/17 09:31:42;;;;;;;59.88;32.10;;;6.30;99.90;;;;;;5085051;28;20027;-83
2024/02/17 09:34:07;;;;;;;63.20;36.08;;;6.30;99.90;;;;;;5094014;28;20032;-82
2024/02/17 09:36:33;;;;;;;69.82;39.28;;;6.30;99.90;;;;;;5089029;28;20035;-81
2024/02/17 09:38:59;;;;;;;59.55;31.95;;;6.30;99.90;;;;;;5088742;28;20052;-82
2024/02/17 09:41:24;;;;;;;62.30;32.25;;;6.40;99.90;;;;;;5087184;28;20044;-82
2024/02/17 09:43:50;;;;;;;57.55;31.77;;;6.30;99.90;;;;;;5086252;28;20025;-83
2024/02/17 09:46:17;;;;;;;57.60;33.20;;;6.30;99.90;;;;;;5086947;28;20390;-84
2024/02/17 09:48:43;;;;;;;69.72;41.45;;;6.40;99.90;;;;;;5081429;28;20031;-81
2024/02/17 09:51:08;;;;;;;74.30;39.10;;;6.40;99.90;;;;;;5080215;28;20016;-82
2024/02/17 09:53:38;;;;;;;61.03;35.40;;;6.40;99.90;;;;;;5086483;28;20024;-82
2024/02/17 09:56:05;;;;;;;58.20;32.38;;;6.40;99.90;;;;;;5090138;28;20032;-83
2024/02/17 09:58:30;;;;;;;59.92;32.85;;;6.40;99.90;;;;;;5089338;28;20174;-83
2024/02/17 10:00:57;;;;;;;58.63;34.08;;;6.40;99.90;;;;;;5085553;28;20110;-83
2024/02/17 10:03:25;;;;;;;62.33;34.40;;;6.40;99.90;;;;;;5085509;28;20024;-83
2024/02/17 10:05:50;;;;;;;65.45;34.78;;;6.50;99.90;;;;;;5089295;28;20381;-83
2024/02/17 10:08:16;;;;;;;64.55;33.88;;;6.50;99.90;;;;;;5086745;28;20016;-83
2024/02/17 10:10:45;;;;;;;65.30;34.90;;;6.50;99.90;;;;;;5086521;28;20104;-83
2024/02/17 10:13:20;;;;;;;74.28;39.60;;;6.50;99.90;;;;;;5089461;28;20038;-83
2024/02/17 10:15:46;;;;;;;64.82;35.15;;;6.50;99.90;;;;;;5092336;28;20024;-83
2024/02/17 10:18:16;;;;;;;73.38;38.92;;;6.60;99.90;;;;;;5083348;28;20480;-83
2024/02/17 10:20:42;;;;;;;71.72;40.03;;;6.60;99.90;;;;;;5087380;28;20024;-82
2024/02/17 10:23:08;;;;;;;68.53;36.28;;;6.50;99.90;;;;;;5083991;28;20027;-83
2024/02/17 10:25:38;;;;;;;59.83;32.88;;;6.60;99.90;;;;;;5084627;28;20504;-83
2024/02/17 10:28:05;;;;;;;62.80;31.83;;;6.60;99.90;;;;;;5088752;28;20055;-83
2024/02/17 10:30:33;;;;;;;68.63;34.53;;;6.60;99.90;;;;;;5080128;28;20519;-83
2024/02/17 10:32:59;;;;;;;53.72;29.98;;;6.60;99.90;;;;;;5087536;28;20016;-83
2024/02/17 10:35:25;;;;;;;71.75;37.60;;;6.60;99.90;;;;;;5089438;28;20508;-83
2024/02/17 10:37:54;;;;;;;65.88;33.72;;;6.60;99.90;;;;;;5086021;28;20097;-84
2024/02/17 10:40:22;;;;;;;54.22;30.55;;;6.60;99.90;;;;;;5021284;28;20056;-84
2024/02/17 10:42:49;;;;;;;62.35;33.15;;;6.60;99.90;;;;;;4993165;28;20023;-83
2024/02/17 10:45:15;;;;;;;64.10;32.70;;;6.60;99.90;;;;;;4999520;28;20068;-83
2024/02/17 10:47:44;;;;;;;62.88;30.70;;;6.60;99.90;;;;;;5072319;28;20022;-83
2024/02/17 10:50:19;;;;;;;50.70;28.48;;;6.60;99.90;;;;;;4993268;28;20030;-83
2024/02/17 10:52:50;;;;;;;56.28;31.67;;;6.60;99.90;;;;;;5006775;28;20498;-83
2024/02/17 10:55:28;;;;;;;60.20;32.53;;;6.60;99.90;;;;;;5077568;28;20129;-83
2024/02/17 10:58:03;;;;;;;59.95;31.30;;;6.60;99.90;;;;;;5008224;28;20022;-83
2024/02/17 11:00:30;;;;;;;62.60;33.80;;;6.60;99.90;;;;;;5002295;28;20030;-83
2024/02/17 11:03:03;;;;;;;67.70;37.22;;;6.60;99.90;;;;;;5076922;28;20049;-83
2024/02/17 11:05:31;;;;;;;69.75;35.38;;;6.60;99.90;;;;;;5062025;28;20490;-83
2024/02/17 11:07:58;;;;;;;72.70;37.53;;;6.50;99.90;;;;;;5066797;28;20071;-83
2024/02/17 11:10:29;;;;;;;60.30;32.80;;;6.50;99.90;;;;;;5078908;28;20475;-83
2024/02/17 11:12:55;;;;;;;72.35;37.58;;;6.40;99.90;;;;;;5047087;28;20037;-83
2024/02/17 11:15:22;;;;;;;65.60;33.85;;;6.50;99.90;;;;;;4996237;28;20041;-83
2024/02/17 11:17:53;;;;;;;77.00;40.33;;;6.40;99.90;;;;;;5009833;28;20097;-83
2024/02/17 11:20:20;;;;;;;70.90;36.47;;;6.40;99.90;;;;;;5067572;28;20112;-84
2024/02/17 11:22:53;;;;;;;72.80;38.55;;;6.40;99.90;;;;;;5007820;28;20150;-83
2024/02/17 11:25:39;;;;;;;79.32;40.67;;;6.40;99.90;;;;;;5073687;28;20369;-83
2024/02/17 11:28:19;;;;;;;80.40;39.42;;;6.40;99.90;;;;;;5009102;28;20365;-83
2024/02/17 11:30:56;;;;;;;79.85;40.63;;;6.50;99.90;;;;;;5064099;28;20387;-83
2024/02/17 11:33:29;;;;;;;69.45;35.20;;;6.50;99.90;;;;;;5006668;28;20021;-83
2024/02/17 11:35:57;;;;;;;66.70;35.05;;;6.50;99.90;;;;;;5077472;28;20127;-83
2024/02/17 11:38:25;;;;;;;65.78;36.22;;;6.50;99.90;;;;;;5076882;28;20602;-83
2024/02/17 11:40:58;;;;;;;70.38;36.63;;;6.50;99.90;;;;;;5076969;28;20038;-83
2024/02/17 11:43:25;;;;;;;74.25;35.10;;;6.50;99.90;;;;;;5066932;28;20502;-83
2024/02/17 11:45:54;;;;;;;74.28;37.60;;;6.50;99.90;;;;;;5075809;28;20087;-83
2024/02/17 11:48:20;;;;;;;73.45;36.65;;;6.50;99.90;;;;;;5009229;28;20030;-83
2024/02/17 11:50:46;;;;;;;72.85;36.58;;;6.50;99.90;;;;;;5076052;28;20029;-83
2024/02/17 11:53:12;;;;;;;70.68;34.65;;;6.50;99.90;;;;;;5009338;28;20026;-82
2024/02/17 11:55:38;;;;;;;74.82;37.85;;;6.50;99.90;;;;;;5075938;28;20042;-83
2024/02/17 11:58:05;;;;;;;81.72;39.97;;;6.50;99.90;;;;;;5076811;28;20046;-85
2024/02/17 12:00:32;;;;;;;72.10;36.42;;;6.50;99.90;;;;;;5000987;28;20041;-84
2024/02/17 12:02:58;;;;;;;75.97;37.60;;;6.50;99.90;;;;;;5076245;28;20022;-84
2024/02/17 12:05:23;;;;;;;72.90;37.90;;;6.50;99.90;;;;;;5062471;28;20105;-83
2024/02/17 12:07:50;;;;;;;78.07;37.63;;;6.50;99.90;;;;;;5064404;28;20022;-82
2024/02/17 12:10:15;;;;;;;75.10;37.13;;;6.50;99.90;;;;;;5071969;28;20126;-82
2024/02/17 12:12:42;;;;;;;70.88;36.72;;;6.50;99.90;;;;;;5075289;28;20063;-83
2024/02/17 12:15:14;;;;;;;92.03;46.65;;;6.50;99.90;;;;;;5075872;28;20555;-82
2024/02/17 12:17:44;;;;;;;86.97;43.72;;;6.60;99.90;;;;;;5076583;28;20116;-82
2024/02/17 12:20:14;;;;;;;101.43;50.45;;;6.60;99.90;;;;;;5075627;28;20524;-82
2024/02/17 12:22:47;;;;;;;99.72;47.80;;;6.60;99.90;;;;;;5008749;28;20116;-83
2024/02/17 12:25:14;;;;;;;95.30;44.45;;;6.60;99.90;;;;;;5079469;28;20025;-83
2024/02/17 12:27:41;;;;;;;116.82;52.38;;;6.70;99.90;;;;;;5012155;28;20125;-83
2024/02/17 12:30:08;;;;;;;163.60;67.70;;;6.70;99.90;;;;;;5079222;28;20025;-82
2024/02/17 12:32:33;;;;;;;149.32;63.33;;;6.70;99.90;;;;;;5011511;28;20029;-83
2024/02/17 12:35:12;;;;;;;124.13;55.22;;;6.70;99.90;;;;;;5006363;28;20031;-83